Novomar — 5BCT2 — position and weather

sailwx.info

Track history (hours):
 
Tides and Currents Weather Stations Pressure Air Temp Water Temp Dewpoint Dewpoint Depression Visibility Wind Speed Wind Dir Waves Ship Positions

Novomar

Last reported at 2014-Oct-22 21:31 UTC. Time now 2014-Oct-23 03:08 UTC.
Position N 43°32' W 003°22'.

Length 89 m; draft 4 m.

Type: Cargo ship. MMSI: 210974000.

Date/timePositionNaut miles runAvg speedWind from/ knotsBaromVisibWave heightAir tempDewpointWater temp
2014-Oct-22 21:31N 43°32' W 003°22'  
2014-Oct-18 19:04N 50°56' E 001°13'5 8.0
2014-Oct-18 18:30N 50°59' E 001°18'8 8.1
2014-Oct-18 17:33N 51°04' E 001°27'9 8.6
2014-Oct-18 16:33N 51°10' E 001°38'9 9.1
2014-Oct-18 15:33N 51°17' E 001°47'9 9.4
2014-Oct-18 14:34N 51°25' E 001°54'9 9.3
2014-Oct-18 13:34N 51°32' E 002°03'9 9.1
2014-Oct-18 12:33N 51°39' E 002°13'159 8.8
2014-Oct-17 18:26N 53°36' E 005°12'9 9.9
2014-Oct-17 17:34N 53°39' E 005°26'10 9.6
2014-Oct-17 16:34N 53°41' E 005°41'9 9.0
2014-Oct-17 15:32N 53°44' E 005°56'56 9.1
2014-Oct-17 09:23N 54°00' E 007°27'8 9.6
2014-Oct-17 08:33N 54°02' E 007°40'10 9.6
2014-Oct-17 07:34N 54°02' E 007°56'12 9.2
2014-Oct-17 06:17N 54°00' E 008°16'7 9.8
2014-Oct-17 05:33N 53°59' E 008°28'8 8.3
2014-Oct-17 04:33N 53°55' E 008°41'7 7.3
2014-Oct-17 03:33N 53°50' E 008°50'8 8.3
2014-Oct-17 02:34N 53°52' E 009°04'4 3.8
2014-Oct-17 01:33N 53°54' E 009°09'7 7.3
2014-Oct-17 00:33N 53°60' E 009°17'8 8.3
2014-Oct-16 23:33N 54°08' E 009°20'5 4.9
2014-Oct-16 22:28N 54°11' E 009°28'5 5.6
2014-Oct-16 21:33N 54°13' E 009°35'8 7.3
2014-Oct-16 20:29N 54°19' E 009°43'7 7.7
2014-Oct-16 19:33N 54°21' E 009°55'7 6.9
2014-Oct-16 18:33N 54°22' E 010°06'2 1.5
2014-Oct-16 17:33N 54°22' E 010°09'6 6.0
2014-Oct-16 16:33N 54°27' E 010°14'9 9.5
2014-Oct-16 15:33N 54°33' E 010°28'4410.3
2014-Oct-16 11:18N 54°28' E 011°43'1210.1
2014-Oct-16 10:09N 54°27' E 012°02'  
Track history (hours):
 
Tides and Currents Weather Stations Pressure Air Temp Water Temp Dewpoint Dewpoint Depression Visibility Wind Speed Wind Dir Waves Ship Positions

Novomar

Last reported at 2014-Oct-22 21:31 UTC. Time now 2014-Oct-23 03:08 UTC.
Position N 43°32' W 003°22'.

Length 89 m; draft 4 m.

Type: Cargo ship. MMSI: 210974000.

Date/timePositionNaut miles runAvg speedWind from/ knotsBaromVisibWave heightAir tempDewpointWater temp
2014-Oct-22 21:31N 43°32' W 003°22'  
2014-Oct-18 19:04N 50°56' E 001°13'5 8.0
2014-Oct-18 18:30N 50°59' E 001°18'8 8.1
2014-Oct-18 17:33N 51°04' E 001°27'9 8.6
2014-Oct-18 16:33N 51°10' E 001°38'9 9.1
2014-Oct-18 15:33N 51°17' E 001°47'9 9.4
2014-Oct-18 14:34N 51°25' E 001°54'9 9.3
2014-Oct-18 13:34N 51°32' E 002°03'9 9.1
2014-Oct-18 12:33N 51°39' E 002°13'159 8.8
2014-Oct-17 18:26N 53°36' E 005°12'9 9.9
2014-Oct-17 17:34N 53°39' E 005°26'10 9.6
2014-Oct-17 16:34N 53°41' E 005°41'9 9.0
2014-Oct-17 15:32N 53°44' E 005°56'56 9.1
2014-Oct-17 09:23N 54°00' E 007°27'8 9.6
2014-Oct-17 08:33N 54°02' E 007°40'10 9.6
2014-Oct-17 07:34N 54°02' E 007°56'12 9.2
2014-Oct-17 06:17N 54°00' E 008°16'7 9.8
2014-Oct-17 05:33N 53°59' E 008°28'8 8.3
2014-Oct-17 04:33N 53°55' E 008°41'7 7.3
2014-Oct-17 03:33N 53°50' E 008°50'8 8.3
2014-Oct-17 02:34N 53°52' E 009°04'4 3.8
2014-Oct-17 01:33N 53°54' E 009°09'7 7.3
2014-Oct-17 00:33N 53°60' E 009°17'8 8.3
2014-Oct-16 23:33N 54°08' E 009°20'5 4.9
2014-Oct-16 22:28N 54°11' E 009°28'5 5.6
2014-Oct-16 21:33N 54°13' E 009°35'8 7.3
2014-Oct-16 20:29N 54°19' E 009°43'7 7.7
2014-Oct-16 19:33N 54°21' E 009°55'7 6.9
2014-Oct-16 18:33N 54°22' E 010°06'2 1.5
2014-Oct-16 17:33N 54°22' E 010°09'6 6.0
2014-Oct-16 16:33N 54°27' E 010°14'9 9.5
2014-Oct-16 15:33N 54°33' E 010°28'4410.3
2014-Oct-16 11:18N 54°28' E 011°43'1210.1
2014-Oct-16 10:09N 54°27' E 012°02'  

Dump ship's entire track history